Time;durP1;ratioP1;P1;durP2;ratioP2;P2;SDS_P1;SDS_P2;PMS_P1;PMS_P2;Temp;Humidity;BMP_temperature;BMP_pressure;BME280_temperature;BME280_humidity;BME280_pressure;Samples;Min_cycle;Max_cycle;Signal;HPM_P1;HPM_P2
2023/01/27 00:03:07;;;;;;;9.20;8.30;;;;;;;4.68;55.91;98130.47;8349407;28;20321;-65
2023/01/27 00:07:09;;;;;;;10.00;8.93;;;;;;;4.72;55.16;98131.28;8349220;28;20533;-66
2023/01/27 00:15:34;;;;;;;10.93;9.20;;;;;;;4.59;55.28;98116.13;8349141;28;20249;-66
2023/01/27 00:19:38;;;;;;;9.50;8.43;;;;;;;4.65;54.91;98120.28;8348020;28;20309;-65
2023/01/27 00:28:04;;;;;;;11.13;9.10;;;;;;;4.60;55.05;98116.97;8348681;28;20260;-66
2023/01/27 00:36:30;;;;;;;11.23;9.50;;;;;;;4.65;54.80;98123.69;8348552;28;20233;-65
2023/01/27 00:40:32;;;;;;;10.87;9.63;;;;;;;4.48;55.33;98088.09;8348474;28;20229;-66
2023/01/27 00:44:35;;;;;;;10.97;9.50;;;;;;;4.60;54.85;98104.97;8348186;28;20536;-65
2023/01/27 00:48:38;;;;;;;10.30;9.20;;;;;;;4.39;55.14;98069.47;8348117;28;20392;-66
2023/01/27 00:52:42;;;;;;;9.87;8.53;;;;;;;4.68;54.91;98110.84;8347891;28;20236;-67
2023/01/27 00:56:45;;;;;;;11.67;9.63;;;;;;;4.57;55.34;98115.31;8347353;28;20230;-66
2023/01/27 01:00:48;;;;;;;10.97;9.53;;;;;;;4.65;54.56;98122.88;8347102;28;20525;-65
2023/01/27 01:04:51;;;;;;;11.87;9.80;;;;;;;4.63;54.50;98117.75;8347443;28;20233;-65
2023/01/27 01:08:56;;;;;;;12.07;9.97;;;;;;;4.57;54.75;98129.81;8346995;28;20225;-66
2023/01/27 01:12:59;;;;;;;11.37;9.50;;;;;;;4.46;55.04;98123.19;8347292;28;20233;-67
2023/01/27 01:17:01;;;;;;;12.33;9.67;;;;;;;4.62;55.20;98130.59;8347181;28;20698;-66
2023/01/27 01:21:05;;;;;;;11.90;10.57;;;;;;;4.57;54.99;98124.69;8347235;28;20234;-65
2023/01/27 01:25:09;;;;;;;11.60;10.20;;;;;;;4.56;54.82;98125.59;8346764;28;20420;-65
2023/01/27 01:29:12;;;;;;;12.73;10.50;;;;;;;4.68;54.96;98125.34;8346576;28;20225;-66
2023/01/27 01:33:15;;;;;;;13.13;10.70;;;;;;;4.52;55.33;98131.66;8345708;28;20225;-66
2023/01/27 01:37:18;;;;;;;13.10;11.07;;;;;;;4.50;55.51;98132.50;8346570;28;20229;-65
2023/01/27 01:41:22;;;;;;;13.90;11.10;;;;;;;3.78;55.26;98025.22;8346488;28;20552;-66
2023/01/27 01:45:53;;;;;;;12.07;10.37;;;;;;;4.57;54.73;98128.13;8346165;28;20501;-66
2023/01/27 01:49:55;;;;;;;13.33;11.50;;;;;;;4.57;55.54;98129.81;8322188;28;20421;-67
2023/01/27 01:54:01;;;;;;;13.17;11.07;;;;;;;4.42;55.56;98116.41;8345972;28;20230;-65
2023/01/27 01:58:07;;;;;;;13.60;11.10;;;;;;;4.69;54.57;98125.34;8345946;28;20410;-66
2023/01/27 02:02:12;;;;;;;13.50;11.43;;;;;;;4.44;55.54;98129.22;8345842;28;20222;-66
2023/01/27 02:06:15;;;;;;;13.93;11.47;;;;;;;4.68;55.01;98130.47;8345067;28;20234;-66
2023/01/27 02:10:18;;;;;;;13.93;11.40;;;;;;;4.57;55.20;98111.88;8345612;28;20423;-66
2023/01/27 02:14:22;;;;;;;14.43;11.43;;;;;;;4.49;55.65;98128.25;8345377;28;20221;-66
2023/01/27 02:18:26;;;;;;;14.03;11.33;;;;;;;4.57;55.79;98127.25;8345277;28;20262;-66
2023/01/27 02:22:33;;;;;;;15.13;11.73;;;;;;;4.56;55.31;98121.28;8345104;28;20498;-66
2023/01/27 02:26:38;;;;;;;13.53;11.00;;;;;;;4.62;55.44;98126.31;8345049;28;20230;-66
2023/01/27 02:30:41;;;;;;;14.37;11.70;;;;;;;4.55;55.53;98129.00;8344609;28;20264;-67
2023/01/27 02:34:44;;;;;;;13.70;11.17;;;;;;;4.44;55.57;98098.44;8344947;28;20295;-66
2023/01/27 02:38:48;;;;;;;12.67;10.77;;;;;;;4.33;55.00;98078.09;8344790;28;20538;-66
2023/01/27 02:42:54;;;;;;;14.13;11.53;;;;;;;4.55;55.39;98118.75;8344541;28;20525;-66
2023/01/27 02:46:56;;;;;;;15.23;11.50;;;;;;;4.53;55.58;98108.50;8344780;28;20230;-66
2023/01/27 02:50:59;;;;;;;15.10;12.10;;;;;;;4.62;55.06;98105.78;8344750;28;20237;-66
2023/01/27 02:55:02;;;;;;;16.47;12.37;;;;;;;4.52;55.93;98111.13;8344456;28;20233;-66
2023/01/27 02:59:06;;;;;;;17.43;13.33;;;;;;;4.23;56.06;98123.56;8344629;28;20230;-65
2023/01/27 03:03:09;;;;;;;16.60;12.50;;;;;;;4.47;55.72;98113.75;8344607;28;20559;-65
2023/01/27 03:07:12;;;;;;;18.37;12.63;;;;;;;4.59;55.55;98123.81;8344207;28;20241;-66
2023/01/27 03:12:18;;;;;;;18.77;13.90;;;;;;;4.34;56.15;98102.88;8344547;28;20421;-66
2023/01/27 03:19:59;;;;;;;18.27;13.20;;;;;;;4.49;55.79;98114.56;8344043;28;20221;-66
2023/01/27 03:24:02;;;;;;;18.10;14.03;;;;;;;4.45;55.99;98134.28;8344504;28;20225;-66
2023/01/27 03:28:05;;;;;;;18.23;13.97;;;;;;;4.42;55.84;98144.63;8344447;28;20236;-66
2023/01/27 03:32:09;;;;;;;21.20;14.30;;;;;;;4.51;55.66;98133.34;8344069;28;20498;-66
2023/01/27 03:49:14;;;;;;;18.00;13.43;;;;;;;4.38;55.63;98135.28;8343973;28;20415;-64
2023/01/27 03:53:17;;;;;;;18.60;12.77;;;;;;;4.58;55.38;98123.84;8343899;28;20321;-63
2023/01/27 03:57:20;;;;;;;19.10;14.00;;;;;;;4.39;55.74;98131.00;8349643;28;20420;-64
2023/01/27 04:01:23;;;;;;;15.83;12.80;;;;;;;4.39;55.79;98136.97;8349548;28;20226;-63
2023/01/27 04:09:47;;;;;;;13.43;10.47;;;;;;;4.04;54.99;98130.69;8348766;28;20409;-63
2023/01/27 04:13:50;;;;;;;12.10;9.77;;;;;;;4.15;54.80;98139.94;8349140;28;20449;-63
2023/01/27 04:17:53;;;;;;;10.23;9.03;;;;;;;4.19;54.76;98132.19;8349042;28;20256;-64
2023/01/27 04:21:58;;;;;;;11.80;9.27;;;;;;;4.28;54.65;98128.59;8348925;28;20306;-63
2023/01/27 04:26:01;;;;;;;12.63;9.90;;;;;;;4.36;54.58;98124.22;8348747;28;20579;-63
2023/01/27 04:30:05;;;;;;;11.73;9.57;;;;;;;4.34;54.36;98122.53;8348604;28;20226;-64
2023/01/27 04:34:08;;;;;;;10.67;8.67;;;;;;;4.40;54.48;98130.13;8348437;28;20544;-63
2023/01/27 04:38:12;;;;;;;10.27;8.73;;;;;;;4.45;54.35;98141.16;8348322;28;20233;-64
2023/01/27 04:42:15;;;;;;;11.13;8.67;;;;;;;4.32;54.57;98140.50;8348336;28;20307;-66
2023/01/27 04:46:17;;;;;;;12.87;9.43;;;;;;;4.38;54.53;98144.69;8348171;28;20233;-66
2023/01/27 04:50:20;;;;;;;11.20;8.70;;;;;;;4.46;54.26;98151.38;8347833;28;20233;-66
2023/01/27 04:54:25;;;;;;;11.30;8.77;;;;;;;4.39;53.93;98141.25;8347943;28;20498;-66
2023/01/27 04:58:28;;;;;;;9.50;8.23;;;;;;;4.43;54.22;98151.44;8347797;28;20234;-66
2023/01/27 05:02:30;;;;;;;10.40;8.80;;;;;;;4.57;54.00;98147.78;8347718;28;20230;-66
2023/01/27 05:06:33;;;;;;;10.87;9.13;;;;;;;4.63;53.76;98151.09;8346813;28;20237;-66
2023/01/27 05:10:37;;;;;;;8.70;7.70;;;;;;;4.52;54.01;98147.03;8347432;28;20233;-66
2023/01/27 05:14:40;;;;;;;9.70;8.50;;;;;;;4.45;54.24;98152.25;8347338;28;20230;-66
2023/01/27 05:18:45;;;;;;;9.33;8.33;;;;;;;4.37;53.09;98153.25;8346657;28;20228;-66
2023/01/27 05:22:48;;;;;;;8.83;7.63;;;;;;;3.94;53.77;98112.91;8347114;28;20513;-66
2023/01/27 05:26:52;;;;;;;9.20;7.73;;;;;;;4.35;53.20;98152.44;8346607;28;20238;-66
2023/01/27 05:31:01;;;;;;;9.17;7.80;;;;;;;4.10;53.42;98148.53;8346880;28;20422;-66
2023/01/27 05:35:04;;;;;;;8.83;7.27;;;;;;;4.30;53.35;98150.81;8346628;28;20225;-67
2023/01/27 05:39:09;;;;;;;8.07;7.27;;;;;;;4.20;52.84;98158.66;8346358;28;20232;-65
2023/01/27 05:43:13;;;;;;;8.20;7.40;;;;;;;4.24;52.38;98162.84;8346340;28;20424;-66
2023/01/27 05:47:16;;;;;;;8.40;7.50;;;;;;;4.17;52.87;98168.94;8346212;28;20244;-66
2023/01/27 05:51:21;;;;;;;8.60;7.70;;;;;;;4.11;52.48;98160.50;8346123;28;20229;-66
2023/01/27 05:55:23;;;;;;;8.13;7.17;;;;;;;4.33;52.32;98167.84;8346140;28;20244;-66
2023/01/27 05:59:28;;;;;;;9.60;8.60;;;;;;;3.91;52.59;98177.88;8346025;28;20395;-66
2023/01/27 06:03:30;;;;;;;8.40;7.50;;;;;;;4.06;53.12;98177.66;8345994;28;20225;-66
2023/01/27 06:07:33;;;;;;;8.63;7.73;;;;;;;4.33;52.34;98190.94;8345688;28;20233;-66
2023/01/27 06:11:36;;;;;;;9.40;7.97;;;;;;;4.20;52.26;98192.81;8345712;28;20285;-65
2023/01/27 06:15:46;;;;;;;10.10;8.23;;;;;;;4.11;51.82;98201.50;8345405;28;20221;-67
2023/01/27 06:19:52;;;;;;;9.40;8.40;;;;;;;4.13;52.43;98200.63;8341169;28;20272;-66
2023/01/27 06:23:56;;;;;;;8.87;7.97;;;;;;;3.95;52.95;98205.16;8344641;28;20245;-66
2023/01/27 06:28:00;;;;;;;10.33;8.90;;;;;;;4.15;52.47;98214.25;8345311;28;20237;-66
2023/01/27 06:32:04;;;;;;;9.43;7.80;;;;;;;4.21;53.08;98211.63;8345288;28;20248;-65
2023/01/27 06:36:10;;;;;;;11.17;9.30;;;;;;;4.13;52.64;98211.72;8344713;28;20234;-65
2023/01/27 06:40:13;;;;;;;11.20;9.20;;;;;;;4.24;52.85;98220.09;8345139;28;20222;-66
2023/01/27 06:44:16;;;;;;;9.27;8.33;;;;;;;4.07;52.33;98210.13;8345010;28;20553;-65
2023/01/27 06:48:21;;;;;;;10.57;8.87;;;;;;;4.08;52.26;98228.91;8344867;28;20232;-66
2023/01/27 06:52:24;;;;;;;11.57;9.27;;;;;;;4.18;52.87;98227.06;8344974;28;20512;-66
2023/01/27 06:56:27;;;;;;;11.03;9.13;;;;;;;4.26;52.53;98238.88;8344969;28;20525;-65
2023/01/27 07:00:29;;;;;;;10.33;9.07;;;;;;;4.43;52.22;98236.06;8344745;28;20233;-66
2023/01/27 07:04:34;;;;;;;12.00;8.90;;;;;;;4.17;52.67;98239.03;8344689;28;20555;-66
2023/01/27 07:08:37;;;;;;;9.73;8.07;;;;;;;4.26;53.10;98241.44;8344566;28;20233;-64
2023/01/27 07:12:40;;;;;;;11.43;9.07;;;;;;;4.33;52.19;98242.22;8344592;28;20236;-65
2023/01/27 07:16:42;;;;;;;10.20;8.87;;;;;;;4.40;52.04;98245.50;8344086;28;20217;-65
2023/01/27 07:20:47;;;;;;;10.03;8.83;;;;;;;4.46;50.99;98230.88;8344535;28;20229;-65
2023/01/27 07:24:49;;;;;;;9.67;8.50;;;;;;;4.42;51.53;98231.81;8344546;28;20233;-65
2023/01/27 07:28:53;;;;;;;10.30;8.80;;;;;;;4.39;51.65;98216.47;8346371;28;20233;-66
2023/01/27 07:32:55;;;;;;;10.93;9.23;;;;;;;4.33;51.51;98247.34;8350486;28;20221;-65
2023/01/27 07:37:00;;;;;;;9.90;8.60;;;;;;;4.35;51.78;98255.00;8350490;28;20260;-65
2023/01/27 07:41:04;;;;;;;8.73;7.73;;;;;;;4.63;51.91;98268.25;8350167;28;20236;-66
2023/01/27 07:45:08;;;;;;;11.30;9.20;;;;;;;4.36;51.60;98274.63;8350249;28;20245;-65
2023/01/27 07:49:11;;;;;;;9.87;8.67;;;;;;;4.51;51.47;98256.44;8350025;28;20469;-65
2023/01/27 07:53:15;;;;;;;11.57;9.07;;;;;;;4.39;51.31;98272.03;8349849;28;20228;-66
2023/01/27 07:57:18;;;;;;;10.13;8.77;;;;;;;4.44;51.86;98277.97;8349620;28;20225;-65
2023/01/27 08:01:21;;;;;;;10.60;8.77;;;;;;;4.33;51.04;98278.09;8349627;28;20234;-66
2023/01/27 08:05:24;;;;;;;9.97;8.40;;;;;;;4.35;51.53;98273.78;8349356;28;20225;-65
2023/01/27 08:09:28;;;;;;;10.97;8.40;;;;;;;4.65;51.15;98279.34;8349175;28;20289;-65
2023/01/27 08:13:31;;;;;;;10.10;8.17;;;;;;;4.53;50.56;98285.50;8349497;28;20229;-66
2023/01/27 08:17:34;;;;;;;8.83;7.37;;;;;;;4.67;51.09;98282.72;8349326;28;20591;-66
2023/01/27 08:21:37;;;;;;;8.80;7.40;;;;;;;4.47;50.33;98244.56;8349219;28;20236;-66
2023/01/27 08:25:41;;;;;;;9.73;8.10;;;;;;;4.60;50.55;98284.53;8349160;28;20254;-65
2023/01/27 08:29:44;;;;;;;8.90;7.63;;;;;;;4.51;51.04;98269.28;8348520;28;20304;-66
2023/01/27 08:33:53;;;;;;;9.80;7.63;;;;;;;3.92;50.07;98164.19;8348767;28;20233;-65
2023/01/27 08:37:56;;;;;;;9.67;7.33;;;;;;;4.98;50.04;98283.06;8348832;28;20533;-65
2023/01/27 08:42:00;;;;;;;9.47;7.73;;;;;;;4.88;49.43;98290.09;8348002;28;20230;-65
2023/01/27 08:46:03;;;;;;;7.83;6.67;;;;;;;4.73;50.16;98274.09;8348356;28;20233;-66
2023/01/27 08:50:07;;;;;;;9.03;7.83;;;;;;;4.76;50.46;98298.00;8348274;28;20391;-65
2023/01/27 08:54:11;;;;;;;11.50;7.80;;;;;;;4.68;49.94;98257.06;8348112;28;20469;-65
2023/01/27 08:58:15;;;;;;;7.43;6.67;;;;;;;4.99;49.93;98289.03;8348148;28;20234;-66
2023/01/27 09:02:21;;;;;;;9.37;7.37;;;;;;;5.19;49.81;98291.28;8347906;28;20229;-65
2023/01/27 09:06:24;;;;;;;8.10;6.90;;;;;;;5.18;49.79;98297.28;8347646;28;20294;-66
2023/01/27 09:10:26;;;;;;;10.63;8.17;;;;;;;5.15;50.07;98295.63;8347576;28;20229;-65
2023/01/27 09:14:31;;;;;;;9.03;7.37;;;;;;;5.43;49.67;98288.28;8347210;28;20229;-65
2023/01/27 09:18:33;;;;;;;8.70;6.90;;;;;;;5.40;48.86;98298.59;8347289;28;20451;-66
2023/01/27 09:22:39;;;;;;;9.20;6.80;;;;;;;5.13;49.67;98273.44;8347298;28;20230;-66
2023/01/27 09:26:41;;;;;;;8.83;6.47;;;;;;;5.18;49.42;98298.16;8346533;28;20233;-66
2023/01/27 09:30:46;;;;;;;10.27;5.77;;;;;;;8.45;79.35;98305.91;8346376;28;20549;-66
2023/01/27 09:34:49;;;;;;;12.80;7.07;;;;;;;9.31;59.08;98316.94;8346770;28;20229;-67
2023/01/27 09:38:54;;;;;;;6.40;5.67;;;;;;;9.92;49.61;98313.97;8346615;28;20233;-67
2023/01/27 09:43:44;;;;;;;8.97;7.60;;;;;;;7.53;44.04;98301.63;8346578;28;20240;-66
2023/01/27 09:48:16;;;;;;;9.40;7.50;;;;;;;6.37;47.30;98312.13;8293806;28;20240;-66
2023/01/27 09:52:34;;;;;;;8.37;6.33;;;;;;;6.30;47.88;98318.28;8341642;28;20248;-65
2023/01/27 09:56:54;;;;;;;7.43;6.37;;;;;;;5.99;48.33;98312.94;8345840;28;20454;-66
2023/01/27 10:01:02;;;;;;;7.73;6.80;;;;;;;5.71;49.26;98312.59;8345885;28;20240;-66
2023/01/27 10:05:23;;;;;;;9.10;6.80;;;;;;;5.93;48.93;98313.03;8346088;28;20301;-66
2023/01/27 10:09:39;;;;;;;8.60;7.00;;;;;;;5.54;49.04;98306.06;8345578;28;20229;-66
2023/01/27 10:13:49;;;;;;;8.43;6.50;;;;;;;5.62;49.36;98305.94;8345559;28;20239;-66
2023/01/27 10:17:57;;;;;;;8.03;6.57;;;;;;;5.50;48.62;98319.81;8345642;28;20234;-66
2023/01/27 10:22:07;;;;;;;9.47;6.97;;;;;;;5.48;50.02;98324.16;8345712;28;20256;-66
2023/01/27 10:26:19;;;;;;;7.77;5.90;;;;;;;5.15;49.69;98334.13;8345483;28;20230;-66
2023/01/27 10:30:28;;;;;;;7.83;6.63;;;;;;;4.83;51.06;98325.22;8344893;28;20240;-66
2023/01/27 10:34:35;;;;;;;8.20;6.40;;;;;;;5.03;50.83;98324.09;8345285;28;20227;-66
2023/01/27 10:38:42;;;;;;;8.45;7.30;;;;;;;5.22;50.12;98327.19;8344559;28;20418;-66
2023/01/27 10:42:50;;;;;;;7.47;6.03;;;;;;;4.98;50.41;98328.44;8344892;28;20451;-66
2023/01/27 10:47:01;;;;;;;7.30;6.00;;;;;;;4.90;50.40;98320.88;8344904;28;20351;-67
2023/01/27 10:51:07;;;;;;;6.83;6.03;;;;;;;4.84;50.99;98306.41;8344835;28;20344;-66
2023/01/27 10:55:17;;;;;;;6.70;5.83;;;;;;;5.20;50.07;98314.38;8344580;28;20251;-66
2023/01/27 10:59:22;;;;;;;6.63;5.40;;;;;;;5.09;50.56;98322.25;8343561;28;20236;-66
2023/01/27 11:03:28;;;;;;;7.20;5.83;;;;;;;4.94;50.07;98278.03;8346136;28;20223;-66
2023/01/27 11:07:32;;;;;;;6.23;5.13;;;;;;;5.14;49.76;98313.63;8351116;28;20244;-66
2023/01/27 11:11:45;;;;;;;6.43;5.13;;;;;;;5.23;50.46;98310.91;8351172;28;20233;-66
2023/01/27 11:15:48;;;;;;;7.50;5.47;;;;;;;5.15;49.93;98305.06;8350946;28;20230;-66
2023/01/27 11:19:57;;;;;;;6.60;5.30;;;;;;;5.54;50.30;98300.94;8351282;28;20526;-66
2023/01/27 11:24:12;;;;;;;7.33;5.53;;;;;;;5.16;51.22;98301.59;8350895;28;20230;-66
2023/01/27 11:28:25;;;;;;;7.70;6.13;;;;;;;5.38;49.74;98310.63;8350744;28;20241;-66
2023/01/27 11:32:40;;;;;;;7.37;5.57;;;;;;;5.44;49.82;98273.72;8350569;28;20529;-65
2023/01/27 11:36:42;;;;;;;6.07;5.47;;;;;;;5.18;51.06;98304.97;8350129;28;20228;-67
2023/01/27 11:40:46;;;;;;;6.70;5.70;;;;;;;5.45;49.82;98293.41;8350109;28;20239;-67
2023/01/27 11:44:55;;;;;;;6.73;5.37;;;;;;;5.63;49.46;98295.59;8350299;28;20546;-67
2023/01/27 11:48:58;;;;;;;5.53;4.90;;;;;;;5.55;49.61;98289.75;8350141;28;20244;-67
2023/01/27 11:53:06;;;;;;;5.90;5.30;;;;;;;5.40;50.01;98278.06;8350091;28;20434;-67
2023/01/27 11:57:17;;;;;;;6.67;5.10;;;;;;;5.53;49.79;98272.69;8350052;28;20268;-67
2023/01/27 12:01:25;;;;;;;5.40;4.80;;;;;;;5.08;50.13;98276.94;8349927;28;20233;-67
2023/01/27 12:05:32;;;;;;;5.77;5.07;;;;;;;4.95;50.16;98205.28;8349439;28;20230;-66
2023/01/27 12:09:36;;;;;;;5.33;4.47;;;;;;;5.26;49.74;98264.63;8349323;28;20414;-67
2023/01/27 12:13:48;;;;;;;6.17;4.97;;;;;;;5.37;49.79;98272.13;8349366;28;20237;-67
2023/01/27 12:17:54;;;;;;;5.73;4.60;;;;;;;5.42;49.38;98273.72;8348065;28;20229;-67
2023/01/27 12:22:00;;;;;;;6.77;5.20;;;;;;;5.41;49.26;98268.66;8349107;28;20234;-66
2023/01/27 12:26:04;;;;;;;6.30;5.70;;;;;;;5.45;49.53;98271.13;8349122;28;20236;-66
2023/01/27 12:30:18;;;;;;;5.40;4.90;;;;;;;5.31;49.49;98262.81;8348696;28;20240;-66
2023/01/27 12:34:29;;;;;;;5.80;4.30;;;;;;;5.15;49.39;98223.75;8348828;28;20261;-66
2023/01/27 12:38:35;;;;;;;6.73;5.00;;;;;;;5.50;49.03;98242.75;8348124;28;20220;-66
2023/01/27 12:42:40;;;;;;;5.13;4.60;;;;;;;4.76;48.74;98120.09;8348146;28;20553;-66
2023/01/27 12:46:57;;;;;;;6.07;5.57;;;;;;;6.09;47.00;98245.00;8345460;28;20427;-66
2023/01/27 12:51:07;;;;;;;5.40;4.90;;;;;;;5.97;48.43;98243.56;8347689;28;20425;-66
2023/01/27 12:55:28;;;;;;;5.93;4.97;;;;;;;5.88;48.56;98251.41;8347712;28;20221;-66
2023/01/27 12:59:31;;;;;;;5.57;4.67;;;;;;;5.71;48.96;98233.78;8347433;28;20230;-66
2023/01/27 13:03:39;;;;;;;5.43;4.57;;;;;;;5.82;48.17;98238.69;8346169;28;20314;-66
2023/01/27 13:07:45;;;;;;;7.70;6.90;;;;;;;5.87;47.99;98249.75;8345207;28;20427;-66
2023/01/27 13:11:48;;;;;;;8.57;6.07;;;;;;;6.00;53.23;98250.38;8346569;28;20442;-65
2023/01/27 13:15:52;;;;;;;5.23;4.77;;;;;;;5.57;48.59;98230.66;8346464;28;20234;-65
2023/01/27 13:19:56;;;;;;;5.47;4.60;;;;;;;4.79;49.18;98156.78;8346208;28;20541;-66
2023/01/27 13:24:02;;;;;;;5.97;4.83;;;;;;;5.58;48.40;98260.59;8346212;28;20235;-66
2023/01/27 13:28:07;;;;;;;5.47;4.90;;;;;;;5.45;49.26;98267.72;8345909;28;20426;-66
2023/01/27 13:32:18;;;;;;;6.20;4.63;;;;;;;5.54;48.44;98282.94;8345765;28;20512;-66
2023/01/27 13:36:28;;;;;;;5.00;4.50;;;;;;;5.19;48.23;98239.94;8345912;28;20283;-66
2023/01/27 13:40:38;;;;;;;5.00;4.50;;;;;;;5.46;47.89;98267.69;8345699;28;20250;-66
2023/01/27 13:44:43;;;;;;;5.03;4.53;;;;;;;5.57;48.59;98276.91;8345836;28;20431;-66
2023/01/27 13:48:50;;;;;;;8.03;5.43;;;;;;;5.54;48.69;98275.25;8345537;28;20354;-66
2023/01/27 13:52:55;;;;;;;8.00;5.30;;;;;;;5.29;49.80;98285.97;8345946;28;20271;-66
2023/01/27 13:57:27;;;;;;;5.50;4.80;;;;;;;5.67;48.59;98280.97;8345753;28;20233;-66
2023/01/27 14:01:43;;;;;;;6.77;5.10;;;;;;;5.46;48.48;98277.97;8345349;28;20304;-66
2023/01/27 14:05:57;;;;;;;5.87;4.50;;;;;;;5.48;49.21;98275.34;8344604;28;20296;-66
2023/01/27 14:10:08;;;;;;;4.93;4.37;;;;;;;5.45;48.52;98268.53;8344652;28;20238;-67
2023/01/27 14:14:21;;;;;;;4.60;4.20;;;;;;;5.70;48.37;98270.66;8345260;28;20553;-66
2023/01/27 14:18:27;;;;;;;5.03;4.60;;;;;;;5.71;48.05;98280.03;8345322;28;20230;-66
2023/01/27 14:22:37;;;;;;;5.40;4.90;;;;;;;5.58;48.48;98273.44;8345325;28;20229;-65
2023/01/27 14:26:47;;;;;;;9.50;8.50;;;;;;;5.31;48.81;98301.31;8345405;28;20299;-66
2023/01/27 14:30:55;;;;;;;8.37;6.90;;;;;;;5.42;48.77;98271.16;8344779;28;20217;-66
2023/01/27 14:35:18;;;;;;;6.60;5.90;;;;;;;5.12;49.01;98290.53;8345024;28;20486;-66
2023/01/27 14:39:27;;;;;;;8.47;5.40;;;;;;;5.47;48.58;98277.06;8344148;28;20225;-66
2023/01/27 14:43:35;;;;;;;5.93;5.33;;;;;;;5.41;49.09;98282.31;8344096;28;20418;-66
2023/01/27 14:47:45;;;;;;;6.07;5.17;;;;;;;5.59;48.92;98283.69;8344800;28;20228;-66
2023/01/27 14:51:52;;;;;;;5.90;5.35;;;;;;;5.87;47.36;98280.59;8343469;28;20428;-66
2023/01/27 14:55:58;;;;;;;4.40;4.00;;;;;;;5.09;49.63;98290.59;8345073;28;20291;-66
2023/01/27 15:00:13;;;;;;;5.30;4.80;;;;;;;5.38;48.50;98287.50;8344918;28;20442;-66
2023/01/27 15:04:37;;;;;;;5.60;4.20;;;;;;;5.45;49.16;98285.69;8344830;28;20548;-66
2023/01/27 15:08:43;;;;;;;7.90;4.20;;;;;;;5.09;48.88;98295.75;8344438;28;20415;-66
2023/01/27 15:13:05;;;;;;;4.07;3.67;;;;;;;5.03;49.18;98300.97;8344356;28;20225;-66
2023/01/27 15:17:23;;;;;;;5.70;4.27;;;;;;;5.18;48.84;98300.72;8344593;28;20225;-66
2023/01/27 15:21:53;;;;;;;6.70;4.93;;;;;;;5.03;49.41;98313.81;8344605;28;20237;-66
2023/01/27 15:25:58;;;;;;;7.43;5.30;;;;;;;5.61;48.14;98312.75;8342874;28;20423;-66
2023/01/27 15:30:06;;;;;;;4.80;4.33;;;;;;;5.19;49.09;98299.00;8344239;28;20268;-66
2023/01/27 15:34:20;;;;;;;7.63;5.10;;;;;;;5.18;49.11;98313.56;8344478;28;20222;-66
2023/01/27 15:38:34;;;;;;;6.43;4.70;;;;;;;5.47;48.99;98327.59;8344565;28;20233;-66
2023/01/27 15:42:51;;;;;;;5.20;4.50;;;;;;;5.05;48.41;98323.19;8344619;28;20525;-67
2023/01/27 15:46:54;;;;;;;5.47;4.47;;;;;;;5.11;48.99;98317.09;8343896;28;20243;-67
2023/01/27 15:51:01;;;;;;;4.93;4.23;;;;;;;4.43;49.26;98238.63;8347988;28;20541;-66
2023/01/27 15:55:06;;;;;;;5.80;4.57;;;;;;;5.12;48.97;98349.59;8349884;28;20384;-66
2023/01/27 15:59:14;;;;;;;6.53;5.60;;;;;;;4.96;49.23;98343.00;8349972;28;20420;-66
2023/01/27 16:03:22;;;;;;;5.17;4.67;;;;;;;4.82;49.21;98335.53;8349791;28;20233;-66
2023/01/27 16:07:28;;;;;;;7.53;6.07;;;;;;;4.58;50.53;98350.41;8349620;28;20238;-66
2023/01/27 16:11:42;;;;;;;7.43;6.07;;;;;;;4.75;49.75;98357.03;8349445;28;20237;-66
2023/01/27 16:15:45;;;;;;;6.03;5.23;;;;;;;4.74;50.11;98340.78;8348534;28;20228;-66
2023/01/27 16:19:55;;;;;;;7.77;6.70;;;;;;;5.19;49.31;98368.31;8349652;28;20237;-67
2023/01/27 16:24:01;;;;;;;17.00;12.50;;;;;;;3.86;50.17;98269.31;8349282;28;20230;-66
2023/01/27 16:28:08;;;;;;;7.17;5.77;;;;;;;5.15;49.19;98372.66;8349291;28;20252;-67
2023/01/27 16:32:15;;;;;;;8.97;7.20;;;;;;;4.87;49.76;98373.09;8348908;28;20230;-66
2023/01/27 16:36:23;;;;;;;11.80;7.87;;;;;;;5.07;50.69;98341.97;8348710;28;20537;-66
2023/01/27 16:40:27;;;;;;;9.20;7.37;;;;;;;5.09;49.98;98377.88;8348534;28;20238;-66
2023/01/27 16:44:39;;;;;;;8.60;6.70;;;;;;;5.02;50.40;98374.56;8348234;28;20225;-66
2023/01/27 16:48:45;;;;;;;10.03;6.67;;;;;;;4.46;51.22;98366.81;8348108;28;20218;-66
2023/01/27 16:52:48;;;;;;;8.90;6.93;;;;;;;4.76;50.62;98374.09;8348087;28;20238;-67
2023/01/27 16:56:52;;;;;;;10.53;7.33;;;;;;;4.96;50.66;98387.50;8348297;28;20519;-67
2023/01/27 17:00:57;;;;;;;7.50;6.57;;;;;;;4.54;50.86;98378.69;8347287;28;20233;-67
2023/01/27 17:05:03;;;;;;;9.23;6.60;;;;;;;4.73;50.80;98385.25;8347537;28;20237;-67
2023/01/27 17:09:19;;;;;;;8.13;6.97;;;;;;;4.88;50.52;98394.47;8347476;28;20412;-66
2023/01/27 17:13:30;;;;;;;8.40;6.80;;;;;;;4.70;50.60;98390.44;8347423;28;20238;-66
2023/01/27 17:17:35;;;;;;;6.73;5.97;;;;;;;4.76;50.77;98374.97;8346544;28;20624;-66
2023/01/27 17:21:40;;;;;;;7.67;6.37;;;;;;;4.34;50.39;98319.97;8347628;28;20236;-66
2023/01/27 17:25:44;;;;;;;7.87;6.97;;;;;;;4.65;50.48;98392.22;8346915;28;20236;-67
2023/01/27 17:29:48;;;;;;;8.38;7.57;;;;;;;5.01;50.12;98392.56;8346174;28;20430;-66
2023/01/27 17:34:49;;;;;;;9.43;6.40;;;;;;;4.86;50.06;98394.47;8440758;27;20542;-65
2023/01/27 17:38:56;;;;;;;8.43;6.90;;;;;;;4.19;51.38;98398.78;8440562;28;20231;-64
2023/01/27 17:42:58;;;;;;;9.50;5.80;;;;;;;4.81;50.63;98383.44;8440344;28;20531;-65
2023/01/27 17:47:01;;;;;;;6.87;5.80;;;;;;;4.92;50.29;98411.50;8440285;28;20456;-65
2023/01/27 17:51:06;;;;;;;7.70;5.97;;;;;;;4.75;51.11;98396.34;8439524;28;20241;-65
2023/01/27 17:55:16;;;;;;;5.80;5.17;;;;;;;4.67;50.71;98401.59;8440029;28;20224;-65
2023/01/27 17:59:20;;;;;;;6.30;5.40;;;;;;;4.62;51.04;98408.50;8439852;28;20242;-65
2023/01/27 18:03:26;;;;;;;5.73;4.57;;;;;;;4.67;50.72;98406.72;8439646;28;20231;-65
2023/01/27 18:07:31;;;;;;;5.73;5.23;;;;;;;5.20;49.17;98411.13;8438050;28;20402;-65
2023/01/27 18:11:36;;;;;;;5.20;4.70;;;;;;;4.83;50.55;98415.03;8439037;28;20476;-65
2023/01/27 18:15:41;;;;;;;5.73;4.77;;;;;;;4.60;50.69;98384.56;8438500;28;20238;-65
2023/01/27 18:19:49;;;;;;;4.90;4.40;;;;;;;4.56;51.02;98425.69;8456196;28;20219;-65
2023/01/27 18:23:55;;;;;;;4.87;4.37;;;;;;;4.46;51.11;98391.63;8472764;28;20235;-65
2023/01/27 18:27:59;;;;;;;5.17;4.57;;;;;;;4.92;50.62;98436.34;8472432;28;20325;-65
2023/01/27 18:32:09;;;;;;;4.00;3.70;;;;;;;4.80;50.64;98430.50;8472270;28;20231;-65
2023/01/27 18:36:21;;;;;;;4.30;4.00;;;;;;;5.61;48.79;98442.97;8470635;28;20413;-66
2023/01/27 18:40:28;;;;;;;3.93;3.57;;;;;;;4.96;50.18;98428.56;8472250;28;20227;-66
2023/01/27 18:44:34;;;;;;;8.57;4.33;;;;;;;8.54;78.95;98450.19;8457612;28;20290;-67
2023/01/27 18:48:37;;;;;;;5.67;4.60;;;;;;;6.58;51.39;98443.78;8449529;28;20590;-66
2023/01/27 18:52:42;;;;;;;5.40;4.90;;;;;;;6.05;49.85;98442.25;8448764;28;20515;-66
2023/01/27 18:56:46;;;;;;;4.00;3.60;;;;;;;5.62;49.40;98437.81;8448980;28;20231;-66
2023/01/27 19:00:50;;;;;;;3.77;3.33;;;;;;;5.56;49.81;98443.06;8449042;28;20224;-66
2023/01/27 19:04:53;;;;;;;3.10;2.80;;;;;;;5.53;49.61;98437.13;8448959;28;20228;-66
2023/01/27 19:08:56;;;;;;;4.20;3.57;;;;;;;5.16;51.06;98435.13;8448631;28;20431;-66
2023/01/27 19:13:02;;;;;;;5.90;5.00;;;;;;;5.36;50.38;98442.53;8448769;28;20603;-65
2023/01/27 19:17:12;;;;;;;6.07;5.00;;;;;;;5.42;49.50;98440.69;8448695;28;20234;-65
2023/01/27 19:21:16;;;;;;;4.70;4.30;;;;;;;5.22;50.69;98446.16;8448458;28;20235;-65
2023/01/27 19:25:19;;;;;;;3.83;3.53;;;;;;;5.36;50.75;98442.53;8448214;28;20230;-65
2023/01/27 19:29:25;;;;;;;5.40;4.90;;;;;;;5.10;50.01;98423.22;8448036;28;20345;-66
2023/01/27 19:33:31;;;;;;;5.13;4.63;;;;;;;5.07;50.76;98438.69;8447960;28;20235;-66
2023/01/27 19:37:34;;;;;;;4.27;3.70;;;;;;;5.00;51.02;98443.03;8448006;28;20226;-66
2023/01/27 19:41:36;;;;;;;3.10;2.80;;;;;;;5.23;50.36;98458.09;8447976;28;20230;-66
2023/01/27 19:45:41;;;;;;;3.90;3.50;;;;;;;5.15;50.60;98459.09;8447845;28;20236;-66
2023/01/27 19:49:44;;;;;;;3.50;3.20;;;;;;;5.04;50.62;98465.22;8447287;28;20239;-66
2023/01/27 19:53:46;;;;;;;5.20;4.17;;;;;;;5.18;49.84;98469.31;8447345;28;20425;-66
2023/01/27 19:57:50;;;;;;;4.20;3.80;;;;;;;4.91;50.97;98471.41;8446378;28;20239;-66
2023/01/27 20:01:55;;;;;;;3.37;3.10;;;;;;;4.99;51.41;98476.44;8447259;28;20231;-66
2023/01/27 20:05:58;;;;;;;4.10;3.70;;;;;;;4.91;51.19;98481.66;8446851;28;20413;-66